createdAt,value
2018-11-25T00:01:23.156Z,299.73
2018-11-25T00:05:30.519Z,293.10
2018-11-25T00:09:38.567Z,334.97
2018-11-25T00:13:47.132Z,310.07
2018-11-25T00:17:55.618Z,349.20
2018-11-25T00:22:02.223Z,283.00
2018-11-25T00:26:09.135Z,259.57
2018-11-25T00:30:17.606Z,244.17
2018-11-25T00:34:28.830Z,236.03
2018-11-25T00:38:35.405Z,212.17
2018-11-25T00:42:44.270Z,234.77
2018-11-25T00:46:50.739Z,221.13
2018-11-25T00:50:58.307Z,238.33
2018-11-25T00:55:28.395Z,203.73
2018-11-25T00:59:35.046Z,222.07
2018-11-25T01:03:41.734Z,259.80
2018-11-25T01:07:48.515Z,246.80
2018-11-25T01:11:56.543Z,209.10
2018-11-25T01:16:04.155Z,186.43
2018-11-25T01:20:22.053Z,176.70
2018-11-25T01:24:28.952Z,184.20
2018-11-25T01:28:36.202Z,204.60
2018-11-25T01:32:44.037Z,249.03
2018-11-25T01:36:50.586Z,227.40
2018-11-25T01:40:58.369Z,228.40
2018-11-25T01:45:26.645Z,269.70
2018-11-25T01:49:33.395Z,409.80
2018-11-25T01:53:41.392Z,335.77
2018-11-25T01:57:49.024Z,312.70
2018-11-25T02:01:55.548Z,253.03
2018-11-25T02:06:03.461Z,328.03
2018-11-25T02:10:17.314Z,266.57
2018-11-25T02:14:23.994Z,275.57
2018-11-25T02:18:31.065Z,233.27
2018-11-25T02:22:37.811Z,254.00
2018-11-25T02:26:46.107Z,219.77
2018-11-25T02:30:53.676Z,209.87
2018-11-25T02:39:10.382Z,242.47
2018-11-25T02:43:17.841Z,234.60
2018-11-25T02:47:28.265Z,227.87
2018-11-25T02:51:34.763Z,236.00
2018-11-25T02:55:42.446Z,199.07
2018-11-25T02:59:49.882Z,205.73
2018-11-25T03:03:56.689Z,201.60
2018-11-25T03:08:03.835Z,197.50
2018-11-25T03:12:12.029Z,178.77
2018-11-25T03:16:21.656Z,185.47
2018-11-25T03:20:28.815Z,202.43
2018-11-25T03:28:43.045Z,198.87
2018-11-25T03:32:58.958Z,190.17
2018-11-25T03:37:06.159Z,192.67
2018-11-25T03:41:12.592Z,193.13
2018-11-25T03:45:18.577Z,176.20
2018-11-25T03:49:26.404Z,186.93
2018-11-25T03:53:34.128Z,183.73
2018-11-25T03:57:41.390Z,180.27
2018-11-25T04:01:48.210Z,196.47
2018-11-25T04:05:55.952Z,176.27
2018-11-25T04:10:05.191Z,184.07
2018-11-25T04:14:12.115Z,181.07
2018-11-25T04:18:20.124Z,186.93
2018-11-25T04:22:26.691Z,201.13
2018-11-25T04:26:34.236Z,188.37
2018-11-25T04:30:41.459Z,209.40
2018-11-25T04:34:49.111Z,201.70
2018-11-25T04:38:57.575Z,188.10
2018-11-25T04:43:06.639Z,207.83
2018-11-25T04:47:13.128Z,198.17
2018-11-25T04:51:22.739Z,203.43
2018-11-25T04:55:29.285Z,215.47
2018-11-25T04:59:37.814Z,205.80
2018-11-25T05:03:44.357Z,215.27
2018-11-25T05:07:51.033Z,210.43
2018-11-25T05:11:58.454Z,263.97
2018-11-25T05:16:06.598Z,207.93
2018-11-25T05:20:13.846Z,213.87
2018-11-25T05:24:44.120Z,264.67
2018-11-25T05:28:51.337Z,256.40
2018-11-25T05:32:58.672Z,223.23
2018-11-25T05:37:05.137Z,220.97
2018-11-25T05:41:11.930Z,234.97
2018-11-25T05:45:22.288Z,200.93
2018-11-25T05:49:36.391Z,216.60
2018-11-25T05:53:40.628Z,199.03
2018-11-25T05:57:47.390Z,182.20
2018-11-25T06:01:54.169Z,183.37
2018-11-25T06:06:01.757Z,200.47
2018-11-25T06:10:11.064Z,209.47
2018-11-25T06:14:18.822Z,204.13
2018-11-25T06:18:25.259Z,224.03
2018-11-25T06:22:33.316Z,204.17
2018-11-25T06:26:43.723Z,204.97
2018-11-25T06:30:50.542Z,210.00
2018-11-25T06:34:59.659Z,208.43
2018-11-25T06:39:09.219Z,219.10
2018-11-25T06:43:17.355Z,231.53
2018-11-25T06:47:26.298Z,200.57
2018-11-25T06:51:33.455Z,226.17
2018-11-25T06:56:03.307Z,241.27
2018-11-25T07:00:16.381Z,217.43
2018-11-25T07:04:23.452Z,223.67
2018-11-25T07:08:29.964Z,215.57
2018-11-25T07:12:37.571Z,243.70
2018-11-25T07:16:44.157Z,211.63
2018-11-25T07:20:50.853Z,214.10
2018-11-25T07:24:58.451Z,233.40
2018-11-25T07:29:05.747Z,204.47
2018-11-25T07:33:12.347Z,201.23
2018-11-25T07:37:19.533Z,223.60
2018-11-25T07:41:28.727Z,232.20
2018-11-25T07:49:42.384Z,222.27
2018-11-25T07:53:49.287Z,205.00
2018-11-25T07:57:57.348Z,204.23
2018-11-25T08:02:04.906Z,194.67
2018-11-25T08:06:11.781Z,194.70
2018-11-25T08:10:19.166Z,197.87
2018-11-25T08:14:29.252Z,173.53
2018-11-25T08:18:38.787Z,174.57
2018-11-25T08:22:45.354Z,151.70
2018-11-25T08:26:53.067Z,156.20
2018-11-25T08:31:01.588Z,175.27
2018-11-25T08:35:09.739Z,161.87
2018-11-25T08:39:17.875Z,182.77
2018-11-25T08:43:24.657Z,187.53
2018-11-25T08:47:31.200Z,177.20
2018-11-25T08:51:39.692Z,177.73
2018-11-25T08:55:46.136Z,174.40
2018-11-25T08:59:53.875Z,174.43
2018-11-25T09:04:22.519Z,171.23
2018-11-25T09:08:30.829Z,166.77
2018-11-25T09:12:40.866Z,152.23
2018-11-25T09:16:48.056Z,162.70
2018-11-25T09:20:57.233Z,159.83
2018-11-25T09:25:04.150Z,145.47
2018-11-25T09:29:10.699Z,160.60
2018-11-25T09:33:19.311Z,157.17
2018-11-25T09:37:28.234Z,159.27
2018-11-25T09:41:37.764Z,154.97
2018-11-25T09:45:47.103Z,156.33
2018-11-25T09:49:54.812Z,153.87
2018-11-25T09:54:01.342Z,160.53
2018-11-25T09:58:08.345Z,179.17
2018-11-25T10:02:16.531Z,155.47
2018-11-25T10:06:23.425Z,148.63
2018-11-25T10:10:30.055Z,131.03
2018-11-25T10:14:36.958Z,127.33
2018-11-25T10:18:44.102Z,123.20
2018-11-25T10:22:51.256Z,134.27
2018-11-25T10:26:57.812Z,146.67
2018-11-25T10:31:05.611Z,132.70
2018-11-25T10:35:12.259Z,135.87
2018-11-25T10:39:23.792Z,131.23
2018-11-25T10:43:30.343Z,137.63
2018-11-25T10:47:58.939Z,135.37
2018-11-25T10:52:06.554Z,141.43
2018-11-25T10:56:13.331Z,148.57
2018-11-25T11:00:43.737Z,162.20
2018-11-25T11:05:11.704Z,167.43
2018-11-25T11:09:20.583Z,181.33
2018-11-25T11:13:27.431Z,169.27
2018-11-25T11:17:34.316Z,181.93
2018-11-25T11:21:41.684Z,190.83
2018-11-25T11:25:48.226Z,187.10
2018-11-25T11:34:03.025Z,178.27
2018-11-25T11:38:11.065Z,173.43
2018-11-25T11:42:19.188Z,198.30
2018-11-25T11:46:25.842Z,186.50
2018-11-25T11:50:32.296Z,179.10
2018-11-25T11:54:40.487Z,174.53
2018-11-25T11:58:47.002Z,170.97
2018-11-25T12:02:54.830Z,172.70
2018-11-25T12:07:02.844Z,164.97
2018-11-25T12:11:11.816Z,190.43
2018-11-25T12:15:30.375Z,169.57
2018-11-25T12:19:39.116Z,171.97
2018-11-25T12:23:45.582Z,152.87
2018-11-25T12:27:52.864Z,155.17
2018-11-25T12:31:59.286Z,157.77
2018-11-25T12:36:06.093Z,174.27
2018-11-25T12:40:14.707Z,173.90
2018-11-25T12:44:21.948Z,161.23
2018-11-25T12:48:28.470Z,163.10
2018-11-25T12:52:36.400Z,180.70
2018-11-25T12:56:44.034Z,180.00
2018-11-25T13:00:53.587Z,186.70
2018-11-25T13:05:01.014Z,171.80
2018-11-25T13:09:09.813Z,167.87
2018-11-25T13:13:18.021Z,169.47
2018-11-25T13:17:25.705Z,180.07
2018-11-25T13:21:34.296Z,182.40
2018-11-25T13:25:41.196Z,178.50
2018-11-25T13:33:58.711Z,174.30
2018-11-25T13:38:05.180Z,171.10
2018-11-25T13:42:16.269Z,181.37
2018-11-25T13:46:20.640Z,184.53
2018-11-25T13:50:27.378Z,195.00
2018-11-25T13:54:33.883Z,190.60
2018-11-25T14:02:49.345Z,180.07
2018-11-25T14:06:56.672Z,189.90
2018-11-25T14:11:23.816Z,197.17
2018-11-25T14:15:30.550Z,188.83
2018-11-25T14:19:37.697Z,187.53
2018-11-25T14:23:44.814Z,180.33
2018-11-25T14:28:02.527Z,173.73
2018-11-25T14:32:09.480Z,180.50
2018-11-25T14:36:15.948Z,184.77
2018-11-25T14:40:24.332Z,175.67
2018-11-25T14:44:30.868Z,187.83
2018-11-25T14:48:38.129Z,194.30
2018-11-25T14:52:48.302Z,202.67
2018-11-25T14:56:56.533Z,198.07
2018-11-25T15:01:03.319Z,183.13
2018-11-25T15:05:14.032Z,183.07
2018-11-25T15:09:20.613Z,180.10
2018-11-25T15:13:28.951Z,186.83
2018-11-25T15:17:56.614Z,188.57
2018-11-25T15:22:06.408Z,196.77
2018-11-25T15:26:13.569Z,171.50
2018-11-25T15:30:20.615Z,185.07
2018-11-25T15:38:40.229Z,187.67
2018-11-25T15:42:48.068Z,186.17
2018-11-25T15:46:56.153Z,177.40
2018-11-25T15:51:02.719Z,186.13
2018-11-25T15:55:14.966Z,187.87
2018-11-25T15:59:24.849Z,226.27
2018-11-25T16:03:35.253Z,187.30
2018-11-25T16:07:43.209Z,199.93
2018-11-25T16:11:49.786Z,180.03
2018-11-25T16:15:57.730Z,187.17
2018-11-25T16:20:07.289Z,200.70
2018-11-25T16:24:13.802Z,204.53
2018-11-25T16:33:00.214Z,191.83
2018-11-25T16:37:07.070Z,211.03
2018-11-25T16:41:13.825Z,200.10
2018-11-25T16:45:21.131Z,202.20
2018-11-25T16:49:28.050Z,223.30
2018-11-25T16:53:34.803Z,206.33
2018-11-25T16:57:41.967Z,208.93
2018-11-25T17:01:50.686Z,219.90
2018-11-25T17:06:20.995Z,194.80
2018-11-25T17:10:33.308Z,191.97
2018-11-25T17:14:40.090Z,201.10
2018-11-25T17:18:46.639Z,198.63
2018-11-25T17:22:53.836Z,201.87
2018-11-25T17:27:03.612Z,210.50
2018-11-25T17:31:14.364Z,210.27
2018-11-25T17:35:30.995Z,200.37
2018-11-25T17:39:38.324Z,197.33
2018-11-25T17:43:44.989Z,183.63
2018-11-25T17:47:51.730Z,183.10
2018-11-25T17:51:58.240Z,176.17
2018-11-25T17:56:07.809Z,189.70
2018-11-25T18:00:42.019Z,172.37
2018-11-25T18:04:48.767Z,183.47
2018-11-25T18:08:55.355Z,205.60
2018-11-25T18:13:02.495Z,208.60
2018-11-25T18:17:09.871Z,223.03
2018-11-25T18:21:22.385Z,226.93
2018-11-25T18:25:28.934Z,238.97
2018-11-25T18:29:36.967Z,244.77
2018-11-25T18:33:43.592Z,217.00
2018-11-25T18:37:50.350Z,234.30
2018-11-25T18:41:57.175Z,249.37
2018-11-25T18:46:04.948Z,228.97
2018-11-25T18:50:15.489Z,232.13
2018-11-25T18:54:22.271Z,229.97
2018-11-25T18:58:28.853Z,207.97
2018-11-25T19:02:46.313Z,232.40
2018-11-25T19:06:53.040Z,229.87
2018-11-25T19:10:59.700Z,221.67
2018-11-25T19:15:09.697Z,248.47
2018-11-25T19:19:17.363Z,254.27
2018-11-25T19:23:26.309Z,241.30
2018-11-25T19:27:33.070Z,215.43
2018-11-25T19:31:39.596Z,225.43
2018-11-25T19:35:48.186Z,237.97
2018-11-25T19:39:55.535Z,229.67
2018-11-25T19:44:20.120Z,219.17
2018-11-25T19:48:26.615Z,242.53
2018-11-25T19:52:33.708Z,219.60
2018-11-25T19:56:40.346Z,217.23
2018-11-25T20:00:49.884Z,198.50
2018-11-25T20:04:56.522Z,188.20
2018-11-25T20:09:03.605Z,171.80
2018-11-25T20:13:12.044Z,155.27
2018-11-25T20:17:30.455Z,162.80
2018-11-25T20:21:54.196Z,155.20
2018-11-25T20:26:02.418Z,162.23
2018-11-25T20:30:14.505Z,182.03
2018-11-25T20:34:21.425Z,194.13
2018-11-25T20:39:02.851Z,208.90
2018-11-25T20:43:12.321Z,233.00
2018-11-25T20:47:19.805Z,234.00
2018-11-25T20:52:01.736Z,327.47
2018-11-25T20:56:08.283Z,348.93
2018-11-25T21:00:20.989Z,314.73
2018-11-25T21:04:27.694Z,296.10
2018-11-25T21:08:34.528Z,310.77
2018-11-25T21:12:41.235Z,302.83
2018-11-25T21:16:48.610Z,310.77
2018-11-25T21:20:56.177Z,287.90
2018-11-25T21:25:02.717Z,267.70
2018-11-25T21:29:44.860Z,216.70
2018-11-25T21:33:51.965Z,222.53
2018-11-25T21:37:59.455Z,220.90
2018-11-25T21:42:06.605Z,188.60
2018-11-25T21:46:13.222Z,171.63
2018-11-25T21:50:25.990Z,131.53
2018-11-25T21:54:32.594Z,155.33
2018-11-25T21:58:39.566Z,147.77
2018-11-25T22:02:46.114Z,151.67
2018-11-25T22:06:53.831Z,148.57
2018-11-25T22:11:00.338Z,146.93
2018-11-25T22:15:08.463Z,125.57
2018-11-25T22:19:50.147Z,145.33
2018-11-25T22:24:16.530Z,152.40
2018-11-25T22:28:24.568Z,148.03
2018-11-25T22:32:31.228Z,164.80
2018-11-25T22:36:37.692Z,155.73
2018-11-25T22:40:45.010Z,153.50
2018-11-25T22:45:08.441Z,154.80
2018-11-25T22:49:16.938Z,165.83
2018-11-25T22:53:26.292Z,157.33
2018-11-25T22:57:35.667Z,142.33
2018-11-25T23:02:00.070Z,154.17
2018-11-25T23:06:41.866Z,166.77
2018-11-25T23:10:48.354Z,164.20
2018-11-25T23:14:56.708Z,156.93
2018-11-25T23:19:03.341Z,136.80
2018-11-25T23:23:10.178Z,160.47
2018-11-25T23:27:16.759Z,177.40
2018-11-25T23:31:23.660Z,164.13
2018-11-25T23:35:34.224Z,151.17
2018-11-25T23:39:40.842Z,157.60
2018-11-25T23:43:47.317Z,124.77
2018-11-25T23:47:54.953Z,123.83
2018-11-25T23:52:01.496Z,124.00
2018-11-25T23:56:08.425Z,151.87
